Terminal Aerodrome Forecast
Issued by NWS

Home | Current Version | Previous Version | Text Only | Print | Product List | Glossary On
Versions: 1 2 3 4 5 6 7 8 9
000
FTUS44 KJAN 272300
TAFHKS
TAF
KHKS 272320Z 2800/2824 15009KT 3SM -RA BR VCTS SCT006 OVC014CB
     FM280200 16009KT 3SM RA BR VCTS OVC005CB
     FM280500 22006KT 4SM -RA BR OVC007
     FM281000 32008KT 4SM -RA BR OVC007=

USA.gov is the U.S. government's official web portal to all federal, state and local government web resources and services.